Time,TemperatureF,DewpointF,PressureIn,WindDirection,WindDirectionDegrees,WindSpeedMPH,WindSpeedGustMPH,Humidity,HourlyPrecipIn,Conditions,Clouds,dailyrainin,SoftwareType,DateUTC
2013-06-26 00:02:00,74.0,69.0,29.61,NW,304,0.0,0.0,84,0.00,,,0.00,,2013-06-26 05:02:00,
2013-06-26 00:11:00,74.0,69.0,29.61,NW,304,0.0,0.0,84,0.00,,,0.00,,2013-06-26 05:11:00,
2013-06-26 00:22:00,74.0,69.0,29.61,WNW,299,0.0,1.0,85,0.00,,,0.00,,2013-06-26 05:22:00,
2013-06-26 00:34:00,73.0,69.0,29.62,WNW,299,0.0,1.0,86,0.00,,,0.00,,2013-06-26 05:34:00,
2013-06-26 00:43:00,73.0,69.0,29.62,WNW,299,0.0,1.0,86,0.00,,,0.00,,2013-06-26 05:43:00,
2013-06-26 00:52:00,73.0,69.0,29.62,SW,217,0.0,2.0,86,0.00,,,0.00,,2013-06-26 05:52:00,
2013-06-26 01:02:00,72.0,68.0,29.63,SW,217,0.0,2.0,86,0.00,,,0.00,,2013-06-26 06:02:00,
2013-06-26 01:11:00,72.0,68.0,29.63,SW,217,0.0,2.0,86,0.00,,,0.00,,2013-06-26 06:11:00,
2013-06-26 01:22:00,72.0,68.0,29.63,SW,218,0.0,1.0,87,0.00,,,0.00,,2013-06-26 06:22:00,
2013-06-26 01:34:00,72.0,68.0,29.63,SW,217,0.0,1.0,87,0.00,,,0.00,,2013-06-26 06:34:00,
2013-06-26 01:43:00,72.0,68.0,29.63,SW,217,0.0,1.0,87,0.00,,,0.00,,2013-06-26 06:43:00,
2013-06-26 01:53:00,71.0,67.0,29.63,SW,217,0.0,1.0,87,0.00,,,0.00,,2013-06-26 06:53:00,
2013-06-26 02:01:00,71.0,67.0,29.64,SSW,198,0.0,1.0,87,0.00,,,0.00,,2013-06-26 07:01:00,
2013-06-26 02:11:00,71.0,67.0,29.64,SSW,198,0.0,1.0,87,0.00,,,0.00,,2013-06-26 07:11:00,
2013-06-26 02:22:00,71.0,67.0,29.64,SSW,198,0.0,1.0,86,0.00,,,0.00,,2013-06-26 07:22:00,
2013-06-26 02:33:00,71.0,67.0,29.64,SSW,199,0.0,1.0,86,0.00,,,0.00,,2013-06-26 07:33:00,
2013-06-26 02:43:00,71.0,67.0,29.64,SSW,199,0.0,1.0,86,0.00,,,0.00,,2013-06-26 07:43:00,
2013-06-26 02:53:00,71.0,67.0,29.63,SW,216,0.0,1.0,87,0.00,,,0.00,,2013-06-26 07:53:00,
2013-06-26 03:01:00,70.0,66.0,29.64,SSW,213,0.0,2.0,87,0.00,,,0.00,,2013-06-26 08:01:00,
2013-06-26 03:11:00,70.0,66.0,29.64,SSW,213,0.0,2.0,87,0.00,,,0.00,,2013-06-26 08:11:00,
2013-06-26 03:22:00,70.0,66.0,29.64,SSW,213,0.0,1.0,88,0.00,,,0.00,,2013-06-26 08:22:00,
2013-06-26 03:33:00,70.0,66.0,29.64,SW,219,0.0,1.0,87,0.00,,,0.00,,2013-06-26 08:33:00,
2013-06-26 03:42:00,70.0,66.0,29.64,SW,219,0.0,1.0,87,0.00,,,0.00,,2013-06-26 08:42:00,
2013-06-26 03:53:00,69.0,65.0,29.64,West,261,0.0,3.0,87,0.00,,,0.00,,2013-06-26 08:53:00,
2013-06-26 04:01:00,70.0,65.0,29.65,WNW,285,2.0,6.0,84,0.00,,,0.00,,2013-06-26 09:01:00,
2013-06-26 04:11:00,70.0,65.0,29.65,WNW,285,2.0,6.0,84,0.00,,,0.00,,2013-06-26 09:11:00,
2013-06-26 04:22:00,70.0,64.0,29.65,West,271,2.0,6.0,82,0.00,,,0.00,,2013-06-26 09:22:00,
2013-06-26 04:32:00,70.0,65.0,29.66,WNW,288,1.0,6.0,83,0.00,,,0.00,,2013-06-26 09:32:00,
2013-06-26 04:43:00,70.0,65.0,29.66,WNW,288,1.0,6.0,83,0.00,,,0.00,,2013-06-26 09:43:00,
2013-06-26 04:53:00,69.0,64.0,29.67,West,277,2.0,6.0,83,0.00,,,0.00,,2013-06-26 09:53:00,
2013-06-26 05:01:00,69.0,64.0,29.67,West,269,2.0,6.0,84,0.00,,,0.00,,2013-06-26 10:01:00,
2013-06-26 05:12:00,69.0,64.0,29.67,West,269,2.0,6.0,84,0.00,,,0.00,,2013-06-26 10:12:00,
2013-06-26 05:22:00,69.0,64.0,29.68,West,266,2.0,6.0,84,0.00,,,0.00,,2013-06-26 10:22:00,
2013-06-26 05:34:00,69.0,64.0,29.68,WNW,288,1.0,4.0,84,0.00,,,0.00,,2013-06-26 10:34:00,
2013-06-26 05:43:00,69.0,64.0,29.68,WNW,288,1.0,4.0,84,0.00,,,0.00,,2013-06-26 10:43:00,
2013-06-26 05:53:00,70.0,64.0,29.69,NNW,344,3.0,7.0,82,0.00,,,0.00,,2013-06-26 10:53:00,
2013-06-26 06:02:00,70.0,64.0,29.70,NNW,330,1.0,6.0,82,0.00,,,0.00,,2013-06-26 11:02:00,
2013-06-26 06:11:00,70.0,64.0,29.70,NNW,330,1.0,6.0,82,0.00,,,0.00,,2013-06-26 11:11:00,
2013-06-26 06:22:00,69.0,64.0,29.70,NNW,329,2.0,6.0,83,0.00,,,0.00,,2013-06-26 11:22:00,
2013-06-26 06:33:00,69.0,64.0,29.71,NW,323,1.0,5.0,84,0.00,,,0.00,,2013-06-26 11:33:00,
2013-06-26 06:44:00,69.0,64.0,29.71,NW,323,1.0,5.0,84,0.00,,,0.00,,2013-06-26 11:44:00,
2013-06-26 06:52:00,69.0,64.0,29.72,NNW,328,0.0,3.0,84,0.00,,,0.00,,2013-06-26 11:52:00,
2013-06-26 07:02:00,69.0,64.0,29.73,WSW,255,0.0,2.0,85,0.00,,,0.00,,2013-06-26 12:02:00,
2013-06-26 07:12:00,69.0,64.0,29.73,WSW,255,0.0,2.0,85,0.00,,,0.00,,2013-06-26 12:12:00,
2013-06-26 07:22:00,69.0,64.0,29.74,WSW,255,0.0,1.0,85,0.00,,,0.00,,2013-06-26 12:22:00,
2013-06-26 07:33:00,70.0,65.0,29.75,NW,325,0.0,4.0,83,0.00,,,0.00,,2013-06-26 12:33:00,
2013-06-26 07:42:00,70.0,65.0,29.75,NW,325,0.0,4.0,83,0.00,,,0.00,,2013-06-26 12:42:00,
2013-06-26 07:52:00,72.0,65.0,29.76,NNW,337,1.0,3.0,80,0.00,,,0.00,,2013-06-26 12:52:00,
2013-06-26 08:02:00,73.0,66.0,29.76,NNW,329,2.0,6.0,79,0.00,,,0.00,,2013-06-26 13:02:00,
2013-06-26 08:11:00,73.0,66.0,29.76,NNW,329,2.0,6.0,79,0.00,,,0.00,,2013-06-26 13:11:00,
2013-06-26 08:22:00,74.0,66.0,29.77,NNE,31,1.0,4.0,76,0.00,,,0.00,,2013-06-26 13:22:00,
2013-06-26 08:34:00,75.0,66.0,29.77,NE,39,3.0,7.0,74,0.00,,,0.00,,2013-06-26 13:34:00,
2013-06-26 08:42:00,75.0,66.0,29.77,NE,39,3.0,7.0,74,0.00,,,0.00,,2013-06-26 13:42:00,
2013-06-26 08:53:00,76.0,66.0,29.77,NNW,339,2.0,6.0,72,0.00,,,0.00,,2013-06-26 13:53:00,
2013-06-26 09:24:00,78.0,67.0,29.78,North,349,4.0,8.0,68,0.00,,,0.00,,2013-06-26 14:24:00,
2013-06-26 09:34:00,79.0,66.0,29.78,North,355,4.0,11.0,64,0.00,,,0.00,,2013-06-26 14:34:00,
2013-06-26 09:42:00,79.0,66.0,29.78,North,355,4.0,11.0,64,0.00,,,0.00,,2013-06-26 14:42:00,
2013-06-26 09:52:00,80.0,66.0,29.78,North,360,3.0,10.0,62,0.00,,,0.00,,2013-06-26 14:52:00,
2013-06-26 10:02:00,80.0,66.0,29.78,North,360,3.0,10.0,62,0.00,,,0.00,,2013-06-26 15:02:00,
2013-06-26 10:11:00,81.0,64.0,29.78,NNW,330,5.0,9.0,56,0.00,,,0.00,,2013-06-26 15:11:00,
2013-06-26 10:34:00,82.0,64.0,29.78,WNW,292,3.0,7.0,55,0.00,,,0.00,,2013-06-26 15:34:00,
2013-06-26 10:44:00,83.0,64.0,29.79,NNW,329,4.0,7.0,52,0.00,,,0.00,,2013-06-26 15:44:00,
2013-06-26 10:53:00,84.0,63.0,29.79,NW,326,3.0,7.0,49,0.00,,,0.00,,2013-06-26 15:53:00,
2013-06-26 11:01:00,84.0,63.0,29.79,NW,326,3.0,7.0,49,0.00,,,0.00,,2013-06-26 16:01:00,
2013-06-26 11:11:00,85.0,64.0,29.79,NNW,340,3.0,8.0,49,0.00,,,0.00,,2013-06-26 16:11:00,
2013-06-26 11:22:00,86.0,62.0,29.80,NNW,332,3.0,7.0,44,0.00,,,0.00,,2013-06-26 16:22:00,
2013-06-26 11:34:00,86.0,62.0,29.80,NNW,332,3.0,7.0,44,0.00,,,0.00,,2013-06-26 16:34:00,
2013-06-26 11:43:00,87.0,60.0,29.80,NNE,32,3.0,7.0,41,0.00,,,0.00,,2013-06-26 16:43:00,
2013-06-26 11:52:00,88.0,60.0,29.80,NNE,25,3.0,7.0,39,0.00,,,0.00,,2013-06-26 16:52:00,
2013-06-26 12:02:00,88.0,60.0,29.80,NNE,25,3.0,7.0,39,0.00,,,0.00,,2013-06-26 17:02:00,
2013-06-26 12:11:00,88.0,60.0,29.80,North,350,2.0,7.0,39,0.00,,,0.00,,2013-06-26 17:11:00,
2013-06-26 12:23:00,89.0,60.0,29.80,NE,43,2.0,8.0,38,0.00,,,0.00,,2013-06-26 17:23:00,
2013-06-26 12:33:00,89.0,60.0,29.80,NE,43,2.0,8.0,38,0.00,,,0.00,,2013-06-26 17:33:00,
2013-06-26 12:43:00,89.0,61.0,29.80,North,360,3.0,9.0,39,0.00,,,0.00,,2013-06-26 17:43:00,
2013-06-26 12:52:00,90.0,58.0,29.80,NNE,30,2.0,7.0,34,0.00,,,0.00,,2013-06-26 17:52:00,
2013-06-26 13:01:00,90.0,58.0,29.80,NNE,30,2.0,7.0,34,0.00,,,0.00,,2013-06-26 18:01:00,
2013-06-26 13:11:00,90.0,59.0,29.80,East,84,3.0,8.0,35,0.00,,,0.00,,2013-06-26 18:11:00,
2013-06-26 13:22:00,91.0,59.0,29.80,NE,40,0.0,5.0,34,0.00,,,0.00,,2013-06-26 18:22:00,
2013-06-26 13:34:00,91.0,59.0,29.80,NE,40,0.0,5.0,34,0.00,,,0.00,,2013-06-26 18:34:00,
2013-06-26 13:43:00,91.0,57.0,29.80,NNW,348,1.0,6.0,32,0.00,,,0.00,,2013-06-26 18:43:00,
2013-06-26 13:52:00,91.0,56.0,29.79,NNE,23,2.0,7.0,31,0.00,,,0.00,,2013-06-26 18:52:00,
2013-06-26 14:01:00,91.0,56.0,29.79,NNE,23,2.0,7.0,31,0.00,,,0.00,,2013-06-26 19:01:00,
2013-06-26 14:11:00,93.0,55.0,29.79,North,5,2.0,9.0,28,0.00,,,0.00,,2013-06-26 19:11:00,
2013-06-26 14:22:00,93.0,52.0,29.79,NW,309,2.0,6.0,25,0.00,,,0.00,,2013-06-26 19:22:00,
2013-06-26 14:33:00,93.0,52.0,29.79,NW,309,2.0,6.0,25,0.00,,,0.00,,2013-06-26 19:33:00,
2013-06-26 14:42:00,94.0,57.0,29.78,NNE,33,1.0,5.0,29,0.00,,,0.00,,2013-06-26 19:42:00,
2013-06-26 14:52:00,93.0,60.0,29.78,SSE,168,0.0,5.0,33,0.00,,,0.00,,2013-06-26 19:52:00,
2013-06-26 15:01:00,93.0,60.0,29.78,SSE,168,0.0,5.0,33,0.00,,,0.00,,2013-06-26 20:01:00,
2013-06-26 15:12:00,93.0,58.0,29.78,ENE,75,1.0,6.0,31,0.00,,,0.00,,2013-06-26 20:12:00,
2013-06-26 15:22:00,94.0,59.0,29.78,WNW,294,1.0,5.0,31,0.00,,,0.00,,2013-06-26 20:22:00,
2013-06-26 15:33:00,94.0,59.0,29.78,WNW,294,1.0,5.0,31,0.00,,,0.00,,2013-06-26 20:33:00,
2013-06-26 15:43:00,94.0,60.0,29.78,South,177,0.0,5.0,32,0.00,,,0.00,,2013-06-26 20:43:00,
2013-06-26 15:52:00,93.0,57.0,29.78,North,9,2.0,6.0,30,0.00,,,0.00,,2013-06-26 20:52:00,
2013-06-26 16:02:00,93.0,57.0,29.78,North,9,2.0,6.0,30,0.00,,,0.00,,2013-06-26 21:02:00,
2013-06-26 16:11:00,93.0,58.0,29.78,NNE,23,1.0,5.0,31,0.00,,,0.00,,2013-06-26 21:11:00,
2013-06-26 16:23:00,94.0,57.0,29.78,North,355,0.0,4.0,29,0.00,,,0.00,,2013-06-26 21:23:00,
2013-06-26 16:33:00,94.0,57.0,29.78,North,355,0.0,4.0,29,0.00,,,0.00,,2013-06-26 21:33:00,
2013-06-26 16:43:00,95.0,60.0,29.78,North,355,0.0,3.0,31,0.00,,,0.00,,2013-06-26 21:43:00,
2013-06-26 16:52:00,95.0,59.0,29.78,NW,321,0.0,4.0,30,0.00,,,0.00,,2013-06-26 21:52:00,
2013-06-26 17:01:00,95.0,59.0,29.78,NW,321,0.0,4.0,30,0.00,,,0.00,,2013-06-26 22:01:00,
2013-06-26 17:11:00,96.0,58.0,29.78,WNW,286,2.0,8.0,28,0.00,,,0.00,,2013-06-26 22:11:00,
2013-06-26 17:22:00,95.0,58.0,29.77,NNE,14,1.0,4.0,29,0.00,,,0.00,,2013-06-26 22:22:00,
2013-06-26 17:33:00,95.0,58.0,29.77,NNE,14,1.0,4.0,29,0.00,,,0.00,,2013-06-26 22:33:00,
2013-06-26 17:43:00,94.0,57.0,29.77,NW,323,2.0,6.0,29,0.00,,,0.00,,2013-06-26 22:43:00,
2013-06-26 17:52:00,95.0,58.0,29.77,North,5,0.0,2.0,29,0.00,,,0.00,,2013-06-26 22:52:00,
2013-06-26 18:01:00,95.0,58.0,29.77,North,5,0.0,2.0,29,0.00,,,0.00,,2013-06-26 23:01:00,
2013-06-26 18:11:00,95.0,59.0,29.77,North,5,1.0,4.0,30,0.00,,,0.00,,2013-06-26 23:11:00,
2013-06-26 18:22:00,95.0,59.0,29.77,NNW,344,0.0,3.0,30,0.00,,,0.00,,2013-06-26 23:22:00,
2013-06-26 18:34:00,95.0,59.0,29.77,NNW,344,0.0,3.0,30,0.00,,,0.00,,2013-06-26 23:34:00,
2013-06-26 18:43:00,95.0,61.0,29.76,NNE,13,0.0,4.0,33,0.00,,,0.00,,2013-06-26 23:43:00,
2013-06-26 18:52:00,94.0,64.0,29.76,NE,55,0.0,2.0,37,0.00,,,0.00,,2013-06-26 23:52:00,
2013-06-26 19:01:00,94.0,64.0,29.76,NE,55,0.0,2.0,37,0.00,,,0.00,,2013-06-27 00:01:00,
2013-06-26 19:11:00,93.0,62.0,29.76,ENE,77,0.0,3.0,36,0.00,,,0.00,,2013-06-27 00:11:00,
2013-06-26 19:22:00,93.0,64.0,29.76,ESE,102,0.0,2.0,39,0.00,,,0.00,,2013-06-27 00:22:00,
2013-06-26 19:33:00,93.0,64.0,29.76,ESE,102,0.0,2.0,39,0.00,,,0.00,,2013-06-27 00:33:00,
2013-06-26 19:42:00,92.0,63.0,29.76,ESE,111,0.0,1.0,39,0.00,,,0.00,,2013-06-27 00:42:00,
2013-06-26 19:53:00,92.0,63.0,29.76,ESE,111,0.0,1.0,39,0.00,,,0.00,,2013-06-27 00:53:00,
2013-06-26 20:01:00,92.0,67.0,29.76,East,94,0.0,2.0,44,0.00,,,0.00,,2013-06-27 01:01:00,
2013-06-26 20:11:00,92.0,67.0,29.76,East,94,0.0,2.0,44,0.00,,,0.00,,2013-06-27 01:11:00,
2013-06-26 20:21:00,92.0,67.0,29.76,East,94,0.0,2.0,44,0.00,,,0.00,,2013-06-27 01:21:00,
2013-06-26 20:32:00,90.0,67.0,29.76,East,80,0.0,0.0,47,0.00,,,0.00,,2013-06-27 01:32:00,
2013-06-26 20:42:00,87.0,67.0,29.77,ENE,69,0.0,1.0,51,0.00,,,0.00,,2013-06-27 01:42:00,
2013-06-26 20:53:00,87.0,67.0,29.77,ENE,69,0.0,1.0,51,0.00,,,0.00,,2013-06-27 01:53:00,
2013-06-26 21:01:00,87.0,67.0,29.77,ENE,65,0.0,3.0,52,0.00,,,0.00,,2013-06-27 02:01:00,
2013-06-26 21:11:00,87.0,67.0,29.77,ENE,65,0.0,3.0,52,0.00,,,0.00,,2013-06-27 02:11:00,
2013-06-26 21:22:00,87.0,67.0,29.77,ENE,65,0.0,3.0,52,0.00,,,0.00,,2013-06-27 02:22:00,
2013-06-26 21:32:00,85.0,68.0,29.77,NE,49,0.0,2.0,56,0.00,,,0.00,,2013-06-27 02:32:00,
2013-06-26 21:42:00,85.0,68.0,29.77,NE,49,0.0,2.0,56,0.00,,,0.00,,2013-06-27 02:42:00,
2013-06-26 21:52:00,81.0,67.0,29.77,SSE,154,0.0,2.0,63,0.00,,,0.00,,2013-06-27 02:52:00,
2013-06-26 22:02:00,81.0,67.0,29.77,SSE,154,0.0,2.0,63,0.00,,,0.00,,2013-06-27 03:02:00,
2013-06-26 22:11:00,81.0,67.0,29.77,SSE,154,0.0,2.0,63,0.00,,,0.00,,2013-06-27 03:11:00,
2013-06-26 22:21:00,80.0,67.0,29.78,SSE,154,0.0,2.0,64,0.00,,,0.00,,2013-06-27 03:21:00,
2013-06-26 22:32:00,80.0,67.0,29.78,SSE,154,0.0,2.0,64,0.00,,,0.00,,2013-06-27 03:32:00,
2013-06-26 22:42:00,78.0,67.0,29.78,ESE,115,0.0,3.0,68,0.00,,,0.00,,2013-06-27 03:42:00,
2013-06-26 22:52:00,78.0,67.0,29.78,ESE,115,0.0,3.0,68,0.00,,,0.00,,2013-06-27 03:52:00,
2013-06-26 23:01:00,78.0,67.0,29.78,ESE,115,0.0,3.0,68,0.00,,,0.00,,2013-06-27 04:01:00,
2013-06-26 23:11:00,78.0,67.0,29.78,ESE,115,0.0,3.0,68,0.00,,,0.00,,2013-06-27 04:11:00,
2013-06-26 23:33:00,78.0,67.0,29.78,SE,140,0.0,2.0,69,0.00,,,0.00,,2013-06-27 04:33:00,
2013-06-26 23:42:00,78.0,67.0,29.78,SE,140,0.0,2.0,69,0.00,,,0.00,,2013-06-27 04:42:00,
2013-06-26 23:53:00,78.0,67.0,29.78,SE,140,0.0,2.0,69,0.00,,,0.00,,2013-06-27 04:53:00,